Time;durP1;ratioP1;P1;durP2;ratioP2;P2;SDS_P1;SDS_P2;PMS_P1;PMS_P2;Temp;Humidity;BMP_temperature;BMP_pressure;BME280_temperature;BME280_humidity;BME280_pressure;Samples;Min_cycle;Max_cycle;Signal;HPM_P1;HPM_P2
2022/04/24 00:00:12;;;;;;;4.20;3.90;;;;;;;;;;5053666;28;20176;-85
2022/04/24 00:02:39;;;;;;;4.37;4.00;;;;;;;;;;5054590;28;20524;-86
2022/04/24 00:05:05;;;;;;;4.60;4.30;;;;;;;;;;5051770;28;20380;-86
2022/04/24 00:07:31;;;;;;;4.07;3.77;;;;;;;;;;5064661;28;20180;-85
2022/04/24 00:09:57;;;;;;;4.57;4.27;;;;;;;;;;5037010;28;20659;-85
2022/04/24 00:12:24;;;;;;;5.27;4.77;;;;;;;;;;5063795;28;20186;-85
2022/04/24 00:14:50;;;;;;;4.47;4.07;;;;;;;;;;5072988;28;20160;-85
2022/04/24 00:17:20;;;;;;;4.40;3.93;;;;;;;;;;5072829;28;20176;-84
2022/04/24 00:19:46;;;;;;;4.17;3.97;;;;;;;;;;5054808;28;20539;-83
2022/04/24 00:22:12;;;;;;;3.70;3.50;;;;;;;;;;5062491;28;20188;-85
2022/04/24 00:24:38;;;;;;;4.90;4.60;;;;;;;;;;5091177;28;20174;-85
2022/04/24 00:27:04;;;;;;;4.47;4.03;;;;;;;;;;5070128;28;20228;-86
2022/04/24 00:29:30;;;;;;;4.47;4.07;;;;;;;;;;5073414;28;20714;-84
2022/04/24 00:31:56;;;;;;;4.10;3.80;;;;;;;;;;5066065;28;20180;-86
2022/04/24 00:34:22;;;;;;;4.10;3.80;;;;;;;;;;5070050;28;20229;-84
2022/04/24 00:36:48;;;;;;;3.97;3.67;;;;;;;;;;5053172;28;20185;-86
2022/04/24 00:39:14;;;;;;;4.53;4.23;;;;;;;;;;5052952;28;20707;-85
2022/04/24 00:41:50;;;;;;;4.03;3.50;;;;;;;;;;5052992;28;20298;-84
2022/04/24 00:44:17;;;;;;;4.73;4.33;;;;;;;;;;5072591;28;20187;-85
2022/04/24 00:46:51;;;;;;;4.20;3.90;;;;;;;;;;5072818;28;20220;-85
2022/04/24 00:49:17;;;;;;;3.80;3.60;;;;;;;;;;5050595;28;20219;-84
2022/04/24 00:51:43;;;;;;;4.60;4.30;;;;;;;;;;5057364;28;20668;-85
2022/04/24 00:54:10;;;;;;;4.27;3.97;;;;;;;;;;5072633;28;20176;-83
2022/04/24 00:56:37;;;;;;;3.80;3.60;;;;;;;;;;5072391;28;20184;-84
2022/04/24 00:59:05;;;;;;;4.45;4.15;;;;;;;;;;5071149;28;20398;-86
2022/04/24 01:01:31;;;;;;;4.30;4.00;;;;;;;;;;5083691;28;20169;-85
2022/04/24 01:04:02;;;;;;;4.27;3.77;;;;;;;;;;5089297;28;20255;-84
2022/04/24 01:06:30;;;;;;;3.93;3.73;;;;;;;;;;5054415;28;20176;-85
2022/04/24 01:08:56;;;;;;;4.57;4.27;;;;;;;;;;5057930;28;20204;-85
2022/04/24 01:11:22;;;;;;;4.73;4.33;;;;;;;;;;5058745;28;20212;-82
2022/04/24 01:13:48;;;;;;;4.23;3.93;;;;;;;;;;5095352;28;20633;-84
2022/04/24 01:16:14;;;;;;;4.87;4.47;;;;;;;;;;5094489;28;20642;-85
2022/04/24 01:18:41;;;;;;;4.67;4.27;;;;;;;;;;5076307;28;20185;-84
2022/04/24 01:21:10;;;;;;;4.33;4.03;;;;;;;;;;5070382;28;20191;-85
2022/04/24 01:23:38;;;;;;;4.30;4.00;;;;;;;;;;5095650;28;20189;-83
2022/04/24 01:26:05;;;;;;;4.37;4.07;;;;;;;;;;5076960;28;20199;-85
2022/04/24 01:28:32;;;;;;;4.10;3.80;;;;;;;;;;5076465;28;20184;-84
2022/04/24 01:30:58;;;;;;;4.63;4.23;;;;;;;;;;5059607;28;20679;-84
2022/04/24 01:33:24;;;;;;;4.20;3.90;;;;;;;;;;5056446;28;20619;-84
2022/04/24 01:35:50;;;;;;;4.70;4.30;;;;;;;;;;5056553;28;20211;-86
2022/04/24 01:38:16;;;;;;;4.67;4.27;;;;;;;;;;5056173;28;20226;-85
2022/04/24 01:40:42;;;;;;;4.97;4.57;;;;;;;;;;5076622;28;20184;-84
2022/04/24 01:43:08;;;;;;;4.77;4.23;;;;;;;;;;5076312;28;20188;-85
2022/04/24 01:45:34;;;;;;;4.33;4.03;;;;;;;;;;5077031;28;20183;-84
2022/04/24 01:48:00;;;;;;;4.40;4.10;;;;;;;;;;5074951;28;20234;-85
2022/04/24 01:50:26;;;;;;;4.57;4.17;;;;;;;;;;5075839;28;20203;-85
2022/04/24 01:52:52;;;;;;;4.73;4.33;;;;;;;;;;5066915;28;20181;-84
2022/04/24 01:55:19;;;;;;;4.90;4.57;;;;;;;;;;5055163;28;20173;-85
2022/04/24 01:57:45;;;;;;;4.00;3.70;;;;;;;;;;5072602;28;20173;-85
2022/04/24 02:00:11;;;;;;;4.40;4.10;;;;;;;;;;5054870;28;20184;-86
2022/04/24 02:02:37;;;;;;;5.03;4.63;;;;;;;;;;5055279;28;20198;-83
2022/04/24 02:05:03;;;;;;;4.60;4.20;;;;;;;;;;5093456;28;20671;-83
2022/04/24 02:07:29;;;;;;;6.43;4.17;;;;;;;;;;5064035;28;20549;-83
2022/04/24 02:09:55;;;;;;;4.77;4.47;;;;;;;;;;5073589;28;20196;-85
2022/04/24 02:12:21;;;;;;;4.43;4.13;;;;;;;;;;5056231;28;20254;-85
2022/04/24 02:14:47;;;;;;;4.80;4.40;;;;;;;;;;5074229;28;20737;-84
2022/04/24 02:17:13;;;;;;;4.80;4.40;;;;;;;;;;5082614;28;20181;-85
2022/04/24 02:19:39;;;;;;;4.03;3.73;;;;;;;;;;5075277;28;20187;-84
2022/04/24 02:22:05;;;;;;;4.57;4.27;;;;;;;;;;5092226;28;20179;-85
2022/04/24 02:24:32;;;;;;;4.40;4.10;;;;;;;;;;5056036;28;20182;-85
2022/04/24 02:26:58;;;;;;;5.10;4.70;;;;;;;;;;5063342;28;20203;-85
2022/04/24 02:29:27;;;;;;;5.30;4.90;;;;;;;;;;5074116;28;20413;-86
2022/04/24 02:31:53;;;;;;;4.83;4.53;;;;;;;;;;5069130;28;20180;-84
2022/04/24 02:34:19;;;;;;;4.80;4.50;;;;;;;;;;5073351;28;20169;-86
2022/04/24 02:36:45;;;;;;;5.17;4.77;;;;;;;;;;5079678;28;20599;-84
2022/04/24 02:39:11;;;;;;;5.37;4.97;;;;;;;;;;5075429;28;20191;-84
2022/04/24 02:41:37;;;;;;;5.67;5.17;;;;;;;;;;5055427;28;20228;-85
2022/04/24 02:44:03;;;;;;;6.53;4.90;;;;;;;;;;5075497;28;20179;-85
2022/04/24 02:46:29;;;;;;;5.10;4.70;;;;;;;;;;5075532;28;20299;-85
2022/04/24 02:48:55;;;;;;;4.70;4.30;;;;;;;;;;5074833;28;20287;-84
2022/04/24 02:51:22;;;;;;;4.67;4.37;;;;;;;;;;5074235;28;20213;-83
2022/04/24 02:53:48;;;;;;;4.83;4.43;;;;;;;;;;5077970;28;20181;-85
2022/04/24 02:56:14;;;;;;;5.10;4.70;;;;;;;;;;5053730;28;20235;-85
2022/04/24 02:58:40;;;;;;;5.10;4.77;;;;;;;;;;5093382;28;20534;-85
2022/04/24 03:01:06;;;;;;;6.70;6.30;;;;;;;;;;5074768;28;20177;-84
2022/04/24 03:03:32;;;;;;;5.07;4.77;;;;;;;;;;5054568;28;20172;-85
2022/04/24 03:05:58;;;;;;;5.87;4.50;;;;;;;;;;5055498;28;20710;-84
2022/04/24 03:08:25;;;;;;;5.50;5.10;;;;;;;;;;5054327;28;20180;-84
2022/04/24 03:10:51;;;;;;;5.27;4.87;;;;;;;;;;5073012;28;20199;-83
2022/04/24 03:13:18;;;;;;;4.83;4.50;;;;;;;;;;5054983;28;20237;-84
2022/04/24 03:15:44;;;;;;;4.90;4.60;;;;;;;;;;5093063;28;20181;-84
2022/04/24 03:18:10;;;;;;;10.33;9.73;;;;;;;;;;5056140;28;20313;-85
2022/04/24 03:20:36;;;;;;;5.90;5.50;;;;;;;;;;5055052;28;20187;-86
2022/04/24 03:23:02;;;;;;;5.37;4.97;;;;;;;;;;5070544;28;20171;-85
2022/04/24 03:25:28;;;;;;;5.60;5.03;;;;;;;;;;5074697;28;20164;-86
2022/04/24 03:27:54;;;;;;;5.47;5.07;;;;;;;;;;5073346;28;20187;-84
2022/04/24 03:30:20;;;;;;;5.13;4.73;;;;;;;;;;5072335;28;20219;-85
2022/04/24 03:32:46;;;;;;;4.60;4.30;;;;;;;;;;5090489;28;20175;-86
2022/04/24 03:35:13;;;;;;;5.20;4.80;;;;;;;;;;5089621;28;20173;-85
2022/04/24 03:37:39;;;;;;;5.37;4.97;;;;;;;;;;5071014;28;20226;-85
2022/04/24 03:40:06;;;;;;;6.20;5.70;;;;;;;;;;5090035;28;20546;-85
2022/04/24 03:42:33;;;;;;;4.60;4.30;;;;;;;;;;5072486;28;20216;-84
2022/04/24 03:44:59;;;;;;;5.47;4.97;;;;;;;;;;5072876;28;20638;-84
2022/04/24 03:47:26;;;;;;;5.37;4.97;;;;;;;;;;5076429;28;20205;-87
2022/04/24 03:49:52;;;;;;;5.63;5.03;;;;;;;;;;5094085;28;20199;-85
2022/04/24 03:52:18;;;;;;;6.37;5.33;;;;;;;;;;5067616;28;20511;-86
2022/04/24 03:54:44;;;;;;;5.33;4.93;;;;;;;;;;5094626;28;20254;-84
2022/04/24 03:57:11;;;;;;;8.97;8.47;;;;;;;;;;5085551;28;20201;-84
2022/04/24 03:59:37;;;;;;;5.50;5.00;;;;;;;;;;5075973;28;20206;-86
2022/04/24 04:02:03;;;;;;;5.27;4.90;;;;;;;;;;5074672;28;21024;-85
2022/04/24 04:04:30;;;;;;;5.50;5.10;;;;;;;;;;5089039;28;20183;-86
2022/04/24 04:06:56;;;;;;;6.00;5.50;;;;;;;;;;5080084;28;20179;-84
2022/04/24 04:09:23;;;;;;;8.83;8.30;;;;;;;;;;5055766;28;20189;-84
2022/04/24 04:11:49;;;;;;;5.63;5.23;;;;;;;;;;5063814;28;20184;-85
2022/04/24 04:14:15;;;;;;;5.43;5.03;;;;;;;;;;5074467;28;20241;-84
2022/04/24 04:16:41;;;;;;;6.03;5.63;;;;;;;;;;5070265;28;20180;-86
2022/04/24 04:19:07;;;;;;;5.80;5.40;;;;;;;;;;5053155;28;20251;-82
2022/04/24 04:21:33;;;;;;;6.00;5.60;;;;;;;;;;5072585;28;20180;-86
2022/04/24 04:23:59;;;;;;;5.70;5.30;;;;;;;;;;5074135;28;20186;-85
2022/04/24 04:26:25;;;;;;;5.63;5.23;;;;;;;;;;5073390;28;20239;-84
2022/04/24 04:28:51;;;;;;;6.27;5.77;;;;;;;;;;5073808;28;20207;-85
2022/04/24 04:31:17;;;;;;;6.00;5.50;;;;;;;;;;5091139;28;20168;-86
2022/04/24 04:33:43;;;;;;;5.90;5.40;;;;;;;;;;5073809;28;20651;-85
2022/04/24 04:36:10;;;;;;;6.37;5.90;;;;;;;;;;5073795;28;20179;-85
2022/04/24 04:38:37;;;;;;;6.47;5.87;;;;;;;;;;5057075;28;20363;-84
2022/04/24 04:41:04;;;;;;;6.33;5.80;;;;;;;;;;5048724;28;20568;-85
2022/04/24 04:43:30;;;;;;;5.70;5.20;;;;;;;;;;5058162;28;20192;-84
2022/04/24 04:45:56;;;;;;;5.43;4.97;;;;;;;;;;5058422;28;20623;-85
2022/04/24 04:48:22;;;;;;;6.00;5.50;;;;;;;;;;5057693;28;20190;-85
2022/04/24 04:50:48;;;;;;;7.33;5.60;;;;;;;;;;5070644;28;20207;-85
2022/04/24 04:53:14;;;;;;;6.53;6.03;;;;;;;;;;5075446;28;20267;-85
2022/04/24 04:55:40;;;;;;;6.17;5.67;;;;;;;;;;5096250;28;20178;-82
2022/04/24 04:58:06;;;;;;;6.13;5.63;;;;;;;;;;5078260;28;20168;-84
2022/04/24 05:00:32;;;;;;;8.83;8.20;;;;;;;;;;5058543;28;20187;-84
2022/04/24 05:02:58;;;;;;;5.90;5.40;;;;;;;;;;5068693;28;20184;-84
2022/04/24 05:05:24;;;;;;;6.10;5.60;;;;;;;;;;5074882;28;20191;-86
2022/04/24 05:07:51;;;;;;;5.40;5.00;;;;;;;;;;5085144;28;20184;-83
2022/04/24 05:10:17;;;;;;;12.17;5.27;;;;;;;;;;5056668;28;20234;-86
2022/04/24 05:12:43;;;;;;;5.57;5.07;;;;;;;;;;5075549;28;20203;-84
2022/04/24 05:15:13;;;;;;;5.97;5.33;;;;;;;;;;5076894;28;20175;-85
2022/04/24 05:17:40;;;;;;;5.60;5.13;;;;;;;;;;5063790;28;20175;-84
2022/04/24 05:20:07;;;;;;;5.50;5.10;;;;;;;;;;5056500;28;20176;-84
2022/04/24 05:22:33;;;;;;;5.20;4.80;;;;;;;;;;5054937;28;20196;-85
2022/04/24 05:25:00;;;;;;;6.23;5.73;;;;;;;;;;5057583;28;20178;-84
2022/04/24 05:27:26;;;;;;;6.17;5.67;;;;;;;;;;5087251;28;20200;-84
2022/04/24 05:29:52;;;;;;;6.67;5.10;;;;;;;;;;5076809;28;20577;-86
2022/04/24 05:32:18;;;;;;;5.17;4.77;;;;;;;;;;5076725;28;20462;-85
2022/04/24 05:34:45;;;;;;;5.40;4.97;;;;;;;;;;5076700;28;20180;-86
2022/04/24 05:37:11;;;;;;;5.47;5.07;;;;;;;;;;5094623;28;20253;-84
2022/04/24 05:39:37;;;;;;;5.40;5.00;;;;;;;;;;5077021;28;20217;-86
2022/04/24 05:42:04;;;;;;;5.13;4.63;;;;;;;;;;5070198;28;20189;-85
2022/04/24 05:44:30;;;;;;;6.30;5.80;;;;;;;;;;5077407;28;20172;-85
2022/04/24 05:46:56;;;;;;;5.40;4.90;;;;;;;;;;5076741;28;20242;-84
2022/04/24 05:49:22;;;;;;;5.70;5.23;;;;;;;;;;5081670;28;20201;-85
2022/04/24 05:51:48;;;;;;;5.40;5.00;;;;;;;;;;5056657;28;20170;-85
2022/04/24 05:54:15;;;;;;;5.30;4.90;;;;;;;;;;5077236;28;20728;-84
2022/04/24 05:56:42;;;;;;;6.00;5.50;;;;;;;;;;5075216;28;20392;-83
2022/04/24 05:59:08;;;;;;;6.03;5.53;;;;;;;;;;5075605;28;20381;-81
2022/04/24 06:01:35;;;;;;;6.17;5.30;;;;;;;;;;5094493;28;20255;-84
2022/04/24 06:04:01;;;;;;;6.33;5.73;;;;;;;;;;5093900;28;20171;-84
2022/04/24 06:06:30;;;;;;;5.37;4.93;;;;;;;;;;5076042;28;20218;-85
2022/04/24 06:08:56;;;;;;;5.10;4.70;;;;;;;;;;5060700;28;20204;-84
2022/04/24 06:11:22;;;;;;;6.33;5.50;;;;;;;;;;5057336;28;20177;-84
2022/04/24 06:13:48;;;;;;;5.50;5.10;;;;;;;;;;5075540;28;20609;-84
2022/04/24 06:16:14;;;;;;;5.63;5.17;;;;;;;;;;5076546;28;20281;-86
2022/04/24 06:18:40;;;;;;;6.00;5.50;;;;;;;;;;5069883;28;20374;-86
2022/04/24 06:21:07;;;;;;;5.57;5.17;;;;;;;;;;5073643;28;20607;-84
2022/04/24 06:23:33;;;;;;;5.57;5.10;;;;;;;;;;5055908;28;20579;-85
2022/04/24 06:25:59;;;;;;;5.57;5.07;;;;;;;;;;5077213;28;20188;-84
2022/04/24 06:28:25;;;;;;;5.10;4.70;;;;;;;;;;5075811;28;20271;-84
2022/04/24 06:30:51;;;;;;;5.70;5.27;;;;;;;;;;5075978;28;20281;-82
2022/04/24 06:33:21;;;;;;;4.60;4.30;;;;;;;;;;5093237;28;20183;-84
2022/04/24 06:35:47;;;;;;;5.90;5.40;;;;;;;;;;5075576;28;20190;-84
2022/04/24 06:38:13;;;;;;;5.20;4.70;;;;;;;;;;5058604;28;20395;-85
2022/04/24 06:40:39;;;;;;;5.40;4.90;;;;;;;;;;5053265;28;20188;-84
2022/04/24 06:43:06;;;;;;;5.30;4.80;;;;;;;;;;5069064;28;20211;-85
2022/04/24 06:45:33;;;;;;;5.40;4.90;;;;;;;;;;5074229;28;20297;-85
2022/04/24 06:48:00;;;;;;;5.77;5.27;;;;;;;;;;5072152;28;20193;-85
2022/04/24 06:50:27;;;;;;;5.30;4.88;;;;;;;;;;5054145;28;20399;-84
2022/04/24 06:52:57;;;;;;;5.75;5.25;;;;;;;;;;5053922;28;20392;-84
2022/04/24 06:55:23;;;;;;;5.10;4.70;;;;;;;;;;5073505;28;20565;-84
2022/04/24 06:57:51;;;;;;;4.77;4.47;;;;;;;;;;5061340;28;20188;-83
2022/04/24 07:00:17;;;;;;;6.40;5.37;;;;;;;;;;5054728;28;20217;-85
2022/04/24 07:02:43;;;;;;;7.23;4.87;;;;;;;;;;5054802;28;20192;-85
2022/04/24 07:05:09;;;;;;;5.47;4.97;;;;;;;;;;5054965;28;20172;-84
2022/04/24 07:07:35;;;;;;;5.40;5.00;;;;;;;;;;5055830;28;20196;-85
2022/04/24 07:10:01;;;;;;;5.43;4.93;;;;;;;;;;5055132;28;20216;-84
2022/04/24 07:12:27;;;;;;;5.10;4.67;;;;;;;;;;5055044;28;20185;-83
2022/04/24 07:14:53;;;;;;;5.57;5.17;;;;;;;;;;5055045;28;20187;-84
2022/04/24 07:17:19;;;;;;;4.73;4.43;;;;;;;;;;5054974;28;20184;-85
2022/04/24 07:19:45;;;;;;;5.70;5.20;;;;;;;;;;5058458;28;20196;-85
2022/04/24 07:22:11;;;;;;;5.57;5.07;;;;;;;;;;5070022;28;20588;-85
2022/04/24 07:24:37;;;;;;;5.67;5.17;;;;;;;;;;5076778;28;20724;-85
2022/04/24 07:27:03;;;;;;;4.53;4.23;;;;;;;;;;5073677;28;20204;-84
2022/04/24 07:29:29;;;;;;;5.50;5.00;;;;;;;;;;5074702;28;20227;-84
2022/04/24 07:31:57;;;;;;;5.43;5.03;;;;;;;;;;5087171;28;20184;-85
2022/04/24 07:34:23;;;;;;;7.03;4.63;;;;;;;;;;5074395;28;20176;-82
2022/04/24 07:36:49;;;;;;;5.20;4.80;;;;;;;;;;5075019;28;20240;-85
2022/04/24 07:39:15;;;;;;;5.50;5.00;;;;;;;;;;5075395;28;20241;-85
2022/04/24 07:41:41;;;;;;;7.10;5.50;;;;;;;;;;5074143;28;20618;-84
2022/04/24 07:44:07;;;;;;;6.50;4.90;;;;;;;;;;5075218;28;20238;-85
2022/04/24 07:46:34;;;;;;;5.57;5.07;;;;;;;;;;5073733;28;20436;-83
2022/04/24 07:49:00;;;;;;;5.73;5.23;;;;;;;;;;5065260;28;20250;-84
2022/04/24 07:51:26;;;;;;;6.17;5.60;;;;;;;;;;5056241;28;20615;-84
2022/04/24 07:53:52;;;;;;;6.03;5.53;;;;;;;;;;5054895;28;20379;-85
2022/04/24 07:56:18;;;;;;;5.78;5.28;;;;;;;;;;5091272;28;20841;-84
2022/04/24 07:58:44;;;;;;;5.67;5.17;;;;;;;;;;5075512;28;20208;-85
2022/04/24 08:01:11;;;;;;;5.23;4.83;;;;;;;;;;5074356;28;20176;-85
2022/04/24 08:03:37;;;;;;;5.83;5.30;;;;;;;;;;5079865;28;20173;-84
2022/04/24 08:06:03;;;;;;;6.00;5.40;;;;;;;;;;5074908;28;20180;-83
2022/04/24 08:08:29;;;;;;;5.93;5.43;;;;;;;;;;5047634;28;20185;-85
2022/04/24 08:10:56;;;;;;;5.50;4.93;;;;;;;;;;5035785;28;20238;-84
2022/04/24 08:13:23;;;;;;;6.10;5.60;;;;;;;;;;5075264;28;20177;-84
2022/04/24 08:15:50;;;;;;;5.37;4.93;;;;;;;;;;5096773;28;20214;-83
2022/04/24 08:18:17;;;;;;;8.33;5.40;;;;;;;;;;5092508;28;20229;-85
2022/04/24 08:20:44;;;;;;;6.87;6.27;;;;;;;;;;5058734;28;20179;-85
2022/04/24 08:23:10;;;;;;;6.43;5.83;;;;;;;;;;5059021;28;20208;-84
2022/04/24 08:25:37;;;;;;;6.77;6.13;;;;;;;;;;5077766;28;20279;-84
2022/04/24 08:28:07;;;;;;;6.47;5.97;;;;;;;;;;5095853;28;20180;-85
2022/04/24 08:30:34;;;;;;;6.43;5.93;;;;;;;;;;5096331;28;20254;-83
2022/04/24 08:33:00;;;;;;;5.10;4.70;;;;;;;;;;5076543;28;20184;-83
2022/04/24 08:35:27;;;;;;;6.47;5.97;;;;;;;;;;5076959;28;20175;-84
2022/04/24 08:37:53;;;;;;;6.10;5.33;;;;;;;;;;5077101;28;20266;-84
2022/04/24 08:40:21;;;;;;;7.00;6.40;;;;;;;;;;5070263;28;20647;-83
2022/04/24 08:42:47;;;;;;;6.63;6.07;;;;;;;;;;5081324;28;20180;-84
2022/04/24 08:45:16;;;;;;;6.20;5.60;;;;;;;;;;5077043;28;20333;-83
2022/04/24 08:47:44;;;;;;;6.60;6.00;;;;;;;;;;5075509;28;20290;-84
2022/04/24 08:50:10;;;;;;;7.07;6.37;;;;;;;;;;5055719;28;20493;-84
2022/04/24 08:52:36;;;;;;;6.50;6.00;;;;;;;;;;5058292;28;20701;-84
2022/04/24 08:55:03;;;;;;;6.70;6.20;;;;;;;;;;5054343;28;20164;-84
2022/04/24 08:57:32;;;;;;;6.20;5.70;;;;;;;;;;5054335;28;20210;-83
2022/04/24 08:59:59;;;;;;;6.77;6.17;;;;;;;;;;5072834;28;20693;-85
2022/04/24 09:02:25;;;;;;;5.80;5.27;;;;;;;;;;5054323;28;20212;-85
2022/04/24 09:04:53;;;;;;;6.20;5.70;;;;;;;;;;5053562;28;20231;-84
2022/04/24 09:07:19;;;;;;;6.00;5.50;;;;;;;;;;5054253;28;20184;-85
2022/04/24 09:09:47;;;;;;;6.87;6.03;;;;;;;;;;5054431;28;20662;-84
2022/04/24 09:12:17;;;;;;;6.37;5.80;;;;;;;;;;5054753;28;20180;-85
2022/04/24 09:14:49;;;;;;;6.17;5.67;;;;;;;;;;5072815;28;20164;-84
2022/04/24 09:17:17;;;;;;;5.73;5.30;;;;;;;;;;5062926;28;20238;-85
2022/04/24 09:19:43;;;;;;;6.60;6.10;;;;;;;;;;5060830;28;20203;-85
2022/04/24 09:22:10;;;;;;;6.40;5.90;;;;;;;;;;5066250;28;20180;-83
2022/04/24 09:24:40;;;;;;;5.47;5.07;;;;;;;;;;5068836;28;20168;-85
2022/04/24 09:27:06;;;;;;;6.40;5.80;;;;;;;;;;5068195;28;20276;-84
2022/04/24 09:29:32;;;;;;;7.23;5.70;;;;;;;;;;5096811;28;20254;-84
2022/04/24 09:31:58;;;;;;;5.57;5.07;;;;;;;;;;5071247;28;20191;-81
2022/04/24 09:34:29;;;;;;;6.83;5.63;;;;;;;;;;5057239;28;20266;-85
2022/04/24 09:37:00;;;;;;;6.83;6.23;;;;;;;;;;5058054;28;20192;-84
2022/04/24 09:39:29;;;;;;;7.03;6.43;;;;;;;;;;5056008;28;20189;-85
2022/04/24 09:42:02;;;;;;;5.73;5.33;;;;;;;;;;5057712;28;20213;-83
2022/04/24 09:44:35;;;;;;;6.53;5.93;;;;;;;;;;5076896;28;20172;-83
2022/04/24 09:47:01;;;;;;;6.03;5.53;;;;;;;;;;5086583;28;20170;-83
2022/04/24 09:49:28;;;;;;;8.77;7.17;;;;;;;;;;5054418;28;20212;-89
2022/04/24 09:51:55;;;;;;;7.50;6.27;;;;;;;;;;5053489;28;20194;-86
2022/04/24 09:54:21;;;;;;;13.40;7.50;;;;;;;;;;5053560;28;20189;-85
2022/04/24 09:56:49;;;;;;;8.17;7.37;;;;;;;;;;5054435;28;20189;-85
2022/04/24 09:59:16;;;;;;;7.97;7.27;;;;;;;;;;5053943;28;20188;-87
2022/04/24 10:01:42;;;;;;;7.73;7.13;;;;;;;;;;5052255;28;20184;-86
2022/04/24 10:04:09;;;;;;;7.83;7.13;;;;;;;;;;5051568;28;20850;-85
2022/04/24 10:06:35;;;;;;;7.77;7.17;;;;;;;;;;5051912;28;20184;-87
2022/04/24 10:09:04;;;;;;;8.77;7.93;;;;;;;;;;5054296;28;20291;-88
2022/04/24 10:11:31;;;;;;;7.60;7.00;;;;;;;;;;5062409;28;20171;-85
2022/04/24 10:14:03;;;;;;;8.37;7.67;;;;;;;;;;5058472;28;20618;-85
2022/04/24 10:16:48;;;;;;;8.00;7.30;;;;;;;;;;5057188;28;20245;-86
2022/04/24 10:19:33;;;;;;;8.20;7.50;;;;;;;;;;5080657;28;20192;-86
2022/04/24 10:22:28;;;;;;;7.37;6.77;;;;;;;;;;5063126;28;20183;-86
2022/04/24 10:25:01;;;;;;;9.13;8.30;;;;;;;;;;5038366;28;20192;-87
2022/04/24 10:27:41;;;;;;;8.63;7.83;;;;;;;;;;5068062;28;20195;-87
2022/04/24 10:30:08;;;;;;;8.53;7.73;;;;;;;;;;5084007;28;20679;-89
2022/04/24 10:32:34;;;;;;;8.13;7.37;;;;;;;;;;5057300;28;20191;-89
2022/04/24 10:35:00;;;;;;;8.03;7.33;;;;;;;;;;5057066;28;20177;-90
2022/04/24 10:37:27;;;;;;;8.20;7.40;;;;;;;;;;5061481;28;20180;-90
2022/04/24 10:39:58;;;;;;;7.63;6.93;;;;;;;;;;5064454;28;20176;-91
2022/04/24 10:42:38;;;;;;;8.50;7.83;;;;;;;;;;5051890;28;20200;-85
2022/04/24 10:45:09;;;;;;;12.43;7.57;;;;;;;;;;5057831;28;20203;-83
2022/04/24 10:47:46;;;;;;;8.20;7.40;;;;;;;;;;5061172;28;20187;-83
2022/04/24 10:50:13;;;;;;;7.70;7.00;;;;;;;;;;5054708;28;20283;-83
2022/04/24 10:52:40;;;;;;;8.03;7.30;;;;;;;;;;5052260;28;20217;-84
2022/04/24 10:55:13;;;;;;;8.53;7.73;;;;;;;;;;5054168;28;20710;-84
2022/04/24 10:57:43;;;;;;;7.83;7.23;;;;;;;;;;5055612;28;20202;-84
2022/04/24 11:00:19;;;;;;;7.53;6.93;;;;;;;;;;5045525;28;20283;-84
2022/04/24 11:02:45;;;;;;;8.00;7.23;;;;;;;;;;5065974;28;20695;-85
2022/04/24 11:05:11;;;;;;;8.70;7.23;;;;;;;;;;5051463;28;20188;-84
2022/04/24 11:07:37;;;;;;;7.43;6.83;;;;;;;;;;5071656;28;20215;-85
2022/04/24 11:10:05;;;;;;;8.93;7.63;;;;;;;;;;5055230;28;20231;-86
2022/04/24 11:12:32;;;;;;;7.23;6.67;;;;;;;;;;5054673;28;20271;-84
2022/04/24 11:15:03;;;;;;;8.43;7.70;;;;;;;;;;5054340;28;20180;-84
2022/04/24 11:17:29;;;;;;;8.10;7.40;;;;;;;;;;5055559;28;20183;-85
2022/04/24 11:19:59;;;;;;;7.27;6.67;;;;;;;;;;5074458;28;20181;-82
2022/04/24 11:22:25;;;;;;;7.03;6.50;;;;;;;;;;5053742;28;20231;-83
2022/04/24 11:24:55;;;;;;;12.43;7.77;;;;;;;;;;5054944;28;20180;-83
2022/04/24 11:27:25;;;;;;;8.10;7.30;;;;;;;;;;5064679;28;20205;-83
2022/04/24 11:29:51;;;;;;;8.17;7.37;;;;;;;;;;5057688;28;20216;-84
2022/04/24 11:32:19;;;;;;;7.40;6.80;;;;;;;;;;5069948;28;20184;-87
2022/04/24 11:34:47;;;;;;;7.57;6.87;;;;;;;;;;5052606;28;20208;-86
2022/04/24 11:37:13;;;;;;;7.23;6.53;;;;;;;;;;5052063;28;20227;-86
2022/04/24 11:39:39;;;;;;;7.10;6.50;;;;;;;;;;5054173;28;20199;-87
2022/04/24 11:42:06;;;;;;;11.70;7.23;;;;;;;;;;5062958;28;20201;-87
2022/04/24 11:50:18;;;;;;;8.00;7.30;;;;;;;;;;5072011;28;20330;-88
2022/04/24 11:52:46;;;;;;;9.90;6.60;;;;;;;;;;5080568;28;20187;-86
2022/04/24 11:55:22;;;;;;;7.30;6.50;;;;;;;;;;5053110;28;20185;-84
2022/04/24 11:57:58;;;;;;;8.63;8.07;;;;;;;;;;5051122;28;20573;-84
2022/04/24 12:00:40;;;;;;;7.00;6.47;;;;;;;;;;5054092;28;20282;-86
2022/04/24 12:03:06;;;;;;;7.37;6.77;;;;;;;;;;5071977;28;20187;-86
2022/04/24 12:05:33;;;;;;;7.03;6.43;;;;;;;;;;5073083;28;20189;-85
2022/04/24 12:08:00;;;;;;;6.73;6.10;;;;;;;;;;5054043;28;20177;-85
2022/04/24 12:10:27;;;;;;;7.13;6.53;;;;;;;;;;5053946;28;20545;-85
2022/04/24 12:12:53;;;;;;;6.80;6.30;;;;;;;;;;5081034;28;20676;-85
2022/04/24 12:15:21;;;;;;;6.63;6.13;;;;;;;;;;5054310;28;20191;-86
2022/04/24 12:17:51;;;;;;;6.13;5.63;;;;;;;;;;5053012;28;20652;-85
2022/04/24 12:20:18;;;;;;;9.97;9.37;;;;;;;;;;5053848;28;20272;-85
2022/04/24 12:22:44;;;;;;;6.23;5.80;;;;;;;;;;5051921;28;20209;-86
2022/04/24 12:25:15;;;;;;;6.77;6.07;;;;;;;;;;5046362;28;20184;-86
2022/04/24 12:27:52;;;;;;;5.87;5.37;;;;;;;;;;5057505;28;20199;-86
2022/04/24 12:30:18;;;;;;;6.80;6.30;;;;;;;;;;5051811;28;20289;-87
2022/04/24 12:32:44;;;;;;;5.70;5.20;;;;;;;;;;5044927;28;20180;-86
2022/04/24 12:35:25;;;;;;;5.77;5.30;;;;;;;;;;5050564;28;20184;-86
2022/04/24 12:37:51;;;;;;;5.90;5.50;;;;;;;;;;5053298;28;20278;-86
2022/04/24 12:40:17;;;;;;;5.47;5.07;;;;;;;;;;5053261;28;20208;-85
2022/04/24 12:42:51;;;;;;;5.73;5.20;;;;;;;;;;5050104;28;20271;-86
2022/04/24 12:45:17;;;;;;;5.40;4.80;;;;;;;;;;5053380;28;20674;-85
2022/04/24 12:47:43;;;;;;;5.40;5.00;;;;;;;;;;5052365;28;20283;-85
2022/04/24 12:50:10;;;;;;;5.83;5.43;;;;;;;;;;5070846;28;20535;-85
2022/04/24 12:52:36;;;;;;;6.93;5.77;;;;;;;;;;5052437;28;20193;-89
2022/04/24 12:55:02;;;;;;;5.57;5.17;;;;;;;;;;5054953;28;20180;-91
2022/04/24 12:57:29;;;;;;;5.73;5.23;;;;;;;;;;5054332;28;20268;-88
2022/04/24 12:59:55;;;;;;;7.30;6.10;;;;;;;;;;5069423;28;20201;-87
2022/04/24 13:02:23;;;;;;;5.57;5.17;;;;;;;;;;5055215;28;20178;-88
2022/04/24 13:04:49;;;;;;;5.93;5.53;;;;;;;;;;5056061;28;20191;-88
2022/04/24 13:07:16;;;;;;;5.23;4.83;;;;;;;;;;5056807;28;20188;-86
2022/04/24 13:09:42;;;;;;;6.10;5.47;;;;;;;;;;5057278;28;20215;-89
2022/04/24 13:12:11;;;;;;;6.50;5.53;;;;;;;;;;5055704;28;20639;-87
2022/04/24 13:14:37;;;;;;;5.47;4.97;;;;;;;;;;5056756;28;20192;-87
2022/04/24 13:19:48;;;;;;;5.53;5.13;;;;;;;;;;5071738;28;21141;-87
2022/04/24 13:22:14;;;;;;;6.17;5.57;;;;;;;;;;5053403;28;20242;-88
2022/04/24 13:24:41;;;;;;;6.43;6.00;;;;;;;;;;5064428;28;20169;-89
2022/04/24 13:27:07;;;;;;;5.30;4.90;;;;;;;;;;5059442;28;20201;-88
2022/04/24 13:29:34;;;;;;;5.30;4.90;;;;;;;;;;5073460;28;20221;-89
2022/04/24 13:32:00;;;;;;;5.97;5.47;;;;;;;;;;5062080;28;20181;-90
2022/04/24 13:34:27;;;;;;;5.93;5.43;;;;;;;;;;5054536;28;20294;-89
2022/04/24 13:39:37;;;;;;;5.90;5.43;;;;;;;;;;5075816;28;20237;-91
2022/04/24 13:42:06;;;;;;;6.20;5.67;;;;;;;;;;5076005;28;20262;-88
2022/04/24 13:44:32;;;;;;;5.13;4.73;;;;;;;;;;5059604;28;20593;-89
2022/04/24 13:46:58;;;;;;;6.13;5.53;;;;;;;;;;5056650;28;20536;-88
2022/04/24 13:49:24;;;;;;;6.13;5.63;;;;;;;;;;5056858;28;20221;-88
2022/04/24 13:51:50;;;;;;;6.77;5.80;;;;;;;;;;5053118;28;20174;-87
2022/04/24 13:54:16;;;;;;;5.40;4.90;;;;;;;;;;5067229;28;20183;-87
2022/04/24 13:56:42;;;;;;;6.00;5.50;;;;;;;;;;5056584;28;20624;-89
2022/04/24 13:59:08;;;;;;;9.70;8.87;;;;;;;;;;5055566;28;20200;-87
2022/04/24 14:01:34;;;;;;;11.87;10.87;;;;;;;;;;5057105;28;20672;-88
2022/04/24 14:04:00;;;;;;;10.03;8.93;;;;;;;;;;5057124;28;20199;-87
2022/04/24 14:06:28;;;;;;;8.27;7.23;;;;;;;;;;5058563;28;20181;-88
2022/04/24 14:08:54;;;;;;;7.10;6.50;;;;;;;;;;5067153;28;20189;-87
2022/04/24 14:11:20;;;;;;;6.67;6.07;;;;;;;;;;5075836;28;20799;-86
2022/04/24 14:13:49;;;;;;;6.30;5.80;;;;;;;;;;5059233;28;20197;-88
2022/04/24 14:16:15;;;;;;;5.77;5.37;;;;;;;;;;5056145;28;20190;-88
2022/04/24 14:18:41;;;;;;;6.13;5.40;;;;;;;;;;5056234;28;20209;-88
2022/04/24 14:21:07;;;;;;;7.80;7.27;;;;;;;;;;5050130;28;20193;-86
2022/04/24 14:23:33;;;;;;;5.70;5.20;;;;;;;;;;5056688;28;20581;-86
2022/04/24 14:25:59;;;;;;;5.40;5.00;;;;;;;;;;5054306;28;20243;-86
2022/04/24 14:28:26;;;;;;;6.20;5.60;;;;;;;;;;5054161;28;20193;-86
2022/04/24 14:30:53;;;;;;;5.77;4.80;;;;;;;;;;5053825;28;20225;-85
2022/04/24 14:33:19;;;;;;;6.13;5.63;;;;;;;;;;5055173;28;20623;-86
2022/04/24 14:35:45;;;;;;;5.40;5.00;;;;;;;;;;5056583;28;20182;-86
2022/04/24 14:38:11;;;;;;;6.07;4.77;;;;;;;;;;5055268;28;20207;-86
2022/04/24 14:40:37;;;;;;;5.40;4.90;;;;;;;;;;5072053;28;20187;-84
2022/04/24 14:43:04;;;;;;;7.13;5.90;;;;;;;;;;5053639;28;20177;-85
2022/04/24 14:56:30;;;;;;;5.27;4.87;;;;;;;;;;5071396;28;20373;-86
2022/04/24 14:58:56;;;;;;;6.73;4.90;;;;;;;;;;5072024;28;20599;-85
2022/04/24 15:01:22;;;;;;;7.87;5.07;;;;;;;;;;5053924;28;20185;-85
2022/04/24 15:03:48;;;;;;;5.30;4.90;;;;;;;;;;5053248;28;20180;-85